Time;durP1;ratioP1;P1;durP2;ratioP2;P2;SDS_P1;SDS_P2;PMS_P1;PMS_P2;Temp;Humidity;BMP_temperature;BMP_pressure;BME280_temperature;BME280_humidity;BME280_pressure;Samples;Min_cycle;Max_cycle;Signal;HPM_P1;HPM_P2
2022/09/14 00:01:38;;;;;;;14.43;9.30;;;10.70;99.90;;;;;;4975256;28;20417;-89
2022/09/14 00:04:16;;;;;;;12.75;9.25;;;10.70;99.90;;;;;;4971747;28;20467;-89
2022/09/14 00:06:46;;;;;;;14.70;8.63;;;10.70;99.90;;;;;;4955436;29;20415;-88
2022/09/14 00:09:22;;;;;;;14.73;9.32;;;10.70;99.90;;;;;;4956857;28;20392;-89
2022/09/14 00:11:50;;;;;;;13.07;8.85;;;10.70;99.90;;;;;;4955486;29;20397;-89
2022/09/14 00:14:18;;;;;;;15.45;10.15;;;10.70;99.90;;;;;;4955677;29;20403;-89
2022/09/14 00:16:46;;;;;;;14.18;9.93;;;10.60;99.90;;;;;;4950329;29;20400;-90
2022/09/14 00:19:20;;;;;;;13.52;10.10;;;10.70;99.90;;;;;;4955418;29;20396;-88
2022/09/14 00:21:57;;;;;;;13.10;8.75;;;10.70;99.90;;;;;;4955407;29;20422;-88
2022/09/14 00:24:26;;;;;;;13.68;9.38;;;10.60;99.90;;;;;;4955223;29;20891;-87
2022/09/14 00:26:54;;;;;;;14.13;9.52;;;10.60;99.90;;;;;;4972553;28;20417;-88
2022/09/14 00:29:22;;;;;;;13.32;8.20;;;10.70;99.90;;;;;;4958590;28;20490;-87
2022/09/14 00:31:50;;;;;;;12.20;9.57;;;10.70;99.90;;;;;;4974254;28;20393;-87
2022/09/14 00:34:18;;;;;;;12.27;9.13;;;10.70;99.90;;;;;;4971308;28;20399;-89
2022/09/14 00:36:47;;;;;;;11.02;8.70;;;10.60;99.90;;;;;;4955018;29;20401;-88
2022/09/14 00:39:16;;;;;;;12.27;9.25;;;10.60;99.90;;;;;;4971239;28;20397;-88
2022/09/14 00:41:45;;;;;;;11.75;9.60;;;10.70;99.90;;;;;;4970887;28;20400;-89
2022/09/14 00:44:12;;;;;;;11.20;8.07;;;10.70;99.90;;;;;;4954947;29;20775;-88
2022/09/14 00:46:43;;;;;;;12.57;9.43;;;10.70;99.90;;;;;;4974164;28;20488;-88
2022/09/14 00:49:31;;;;;;;12.65;9.27;;;10.60;99.90;;;;;;4974360;28;20948;-89
2022/09/14 00:52:07;;;;;;;12.43;8.40;;;10.70;99.90;;;;;;4973895;28;20417;-89
2022/09/14 00:54:40;;;;;;;14.23;9.77;;;10.70;99.90;;;;;;4970226;28;20439;-89
2022/09/14 00:57:08;;;;;;;11.32;8.75;;;10.60;99.90;;;;;;4954772;29;20400;-90
2022/09/14 00:59:38;;;;;;;10.98;8.00;;;10.60;99.90;;;;;;4954682;29;20400;-88
2022/09/14 01:02:08;;;;;;;15.52;9.20;;;10.60;99.90;;;;;;4967497;28;20447;-89
2022/09/14 01:04:36;;;;;;;14.20;10.00;;;10.60;99.90;;;;;;4970698;28;20437;-89
2022/09/14 01:07:10;;;;;;;15.40;10.45;;;10.70;99.90;;;;;;4970544;28;20520;-90
2022/09/14 01:09:38;;;;;;;15.40;10.00;;;10.70;99.90;;;;;;4970577;28;20404;-88
2022/09/14 01:12:19;;;;;;;14.23;9.88;;;10.70;99.90;;;;;;4969480;28;20485;-89
2022/09/14 01:15:13;;;;;;;14.07;10.18;;;10.70;99.90;;;;;;4970475;28;20404;-89
2022/09/14 01:18:02;;;;;;;12.77;9.73;;;10.70;99.90;;;;;;4954883;29;20912;-89
2022/09/14 01:20:34;;;;;;;14.63;10.15;;;10.70;99.90;;;;;;4941937;29;20891;-89
2022/09/14 01:23:27;;;;;;;12.27;8.95;;;10.70;99.90;;;;;;4970453;28;20479;-88
2022/09/14 01:26:34;;;;;;;12.48;8.95;;;10.60;99.90;;;;;;4956052;28;20447;-87
2022/09/14 01:29:19;;;;;;;13.02;9.23;;;10.70;99.90;;;;;;4970254;28;20557;-88
2022/09/14 01:31:59;;;;;;;13.70;9.50;;;10.60;99.90;;;;;;4953956;29;20422;-89
2022/09/14 01:34:33;;;;;;;12.37;9.33;;;10.50;99.90;;;;;;4954198;28;20392;-89
2022/09/14 01:37:13;;;;;;;12.80;10.05;;;10.50;99.90;;;;;;4938256;29;20408;-89
2022/09/14 01:40:10;;;;;;;16.10;9.55;;;10.60;99.90;;;;;;4954288;29;20396;-88
2022/09/14 01:42:41;;;;;;;13.65;9.40;;;10.60;99.90;;;;;;4953909;29;20417;-88
2022/09/14 01:45:13;;;;;;;13.95;9.90;;;10.40;99.90;;;;;;4954364;29;20483;-88
2022/09/14 01:48:00;;;;;;;12.50;9.50;;;10.30;99.90;;;;;;4953694;29;20432;-88
2022/09/14 01:50:32;;;;;;;13.90;9.63;;;10.30;99.90;;;;;;4954030;29;20416;-87
2022/09/14 01:53:14;;;;;;;14.48;10.60;;;10.40;99.90;;;;;;4955011;28;20385;-89
2022/09/14 01:55:50;;;;;;;13.00;9.60;;;10.30;99.90;;;;;;4972793;28;20485;-88
2022/09/14 01:58:27;;;;;;;12.35;9.38;;;10.30;99.90;;;;;;4973188;28;20400;-86
2022/09/14 02:01:00;;;;;;;12.80;10.27;;;10.30;99.90;;;;;;4972921;28;20394;-88
2022/09/14 02:03:51;;;;;;;12.23;9.40;;;10.40;99.90;;;;;;4972755;28;20947;-89
2022/09/14 02:06:31;;;;;;;11.15;9.20;;;10.40;99.90;;;;;;4972519;28;20430;-89
2022/09/14 02:08:59;;;;;;;12.93;9.25;;;10.30;99.90;;;;;;4972735;28;20449;-88
2022/09/14 02:11:27;;;;;;;13.25;9.55;;;10.20;99.90;;;;;;4974002;28;20395;-88
2022/09/14 02:13:58;;;;;;;14.48;10.35;;;10.20;99.90;;;;;;4973819;28;20419;-89
2022/09/14 02:16:26;;;;;;;12.48;9.10;;;10.30;99.90;;;;;;4970415;28;20592;-88
2022/09/14 02:18:53;;;;;;;11.93;9.15;;;10.30;99.90;;;;;;4969717;28;20404;-88
2022/09/14 02:21:32;;;;;;;12.57;9.68;;;10.20;99.90;;;;;;4969826;28;20419;-88
2022/09/14 02:24:01;;;;;;;11.48;8.40;;;10.30;99.90;;;;;;4968815;28;20412;-88
2022/09/14 02:26:29;;;;;;;14.20;9.00;;;10.40;99.90;;;;;;4952421;29;20491;-89
2022/09/14 02:28:56;;;;;;;11.87;8.73;;;10.30;99.90;;;;;;4954610;29;20424;-88
2022/09/14 02:31:45;;;;;;;11.70;9.02;;;10.30;99.90;;;;;;4954211;28;20420;-87
2022/09/14 02:34:22;;;;;;;12.50;10.05;;;10.30;99.90;;;;;;4972131;28;20410;-88
2022/09/14 02:37:08;;;;;;;12.07;9.38;;;10.40;99.90;;;;;;4970154;28;20908;-88
2022/09/14 02:40:07;;;;;;;11.20;8.27;;;10.30;99.90;;;;;;4954117;29;20455;-87
2022/09/14 02:42:54;;;;;;;11.38;8.25;;;10.40;99.90;;;;;;4968811;28;20473;-89
2022/09/14 02:46:01;;;;;;;10.55;8.80;;;10.40;99.90;;;;;;4954081;29;20482;-87
2022/09/14 02:48:31;;;;;;;12.38;8.70;;;10.40;99.90;;;;;;4959224;28;20914;-88
2022/09/14 02:51:11;;;;;;;14.02;10.00;;;10.40;99.90;;;;;;4954245;28;20435;-87
2022/09/14 02:53:55;;;;;;;13.27;9.83;;;10.30;99.90;;;;;;4952813;28;20398;-88
2022/09/14 02:56:24;;;;;;;12.13;9.23;;;10.40;99.90;;;;;;4956649;28;20487;-87
2022/09/14 02:58:52;;;;;;;10.30;7.88;;;10.30;99.90;;;;;;4966517;28;20410;-89
2022/09/14 03:01:21;;;;;;;10.57;8.13;;;10.30;99.90;;;;;;4968929;28;20408;-88
2022/09/14 03:03:49;;;;;;;12.68;9.02;;;10.30;99.90;;;;;;4965368;28;20398;-88
2022/09/14 03:06:17;;;;;;;14.48;9.65;;;10.30;99.90;;;;;;4971918;28;20406;-89
2022/09/14 03:08:45;;;;;;;12.63;9.77;;;10.30;99.90;;;;;;4971820;28;20461;-88
2022/09/14 03:11:12;;;;;;;11.95;9.52;;;10.30;99.90;;;;;;4971763;28;20397;-87
2022/09/14 03:13:40;;;;;;;10.98;8.73;;;10.30;99.90;;;;;;4973057;28;20442;-87
2022/09/14 03:16:13;;;;;;;13.57;9.90;;;10.30;99.90;;;;;;4973054;28;20453;-87
2022/09/14 03:18:41;;;;;;;11.50;8.27;;;10.20;99.90;;;;;;4971896;28;20449;-89
2022/09/14 03:21:13;;;;;;;12.18;9.40;;;10.20;99.90;;;;;;4971712;28;20467;-88
2022/09/14 03:23:44;;;;;;;13.90;9.98;;;10.20;99.90;;;;;;4963994;28;20455;-88
2022/09/14 03:26:17;;;;;;;12.55;9.40;;;10.30;99.90;;;;;;4968831;28;20388;-88
2022/09/14 03:28:53;;;;;;;12.80;10.00;;;10.30;99.90;;;;;;4972093;28;20398;-89
2022/09/14 03:31:21;;;;;;;12.43;9.25;;;10.30;99.90;;;;;;4971981;28;20396;-88
2022/09/14 03:33:57;;;;;;;14.23;10.30;;;10.40;99.90;;;;;;4972048;28;20818;-87
2022/09/14 03:36:27;;;;;;;12.15;8.73;;;10.30;99.90;;;;;;4975192;28;20465;-86
2022/09/14 03:38:56;;;;;;;11.52;8.70;;;10.20;99.90;;;;;;4974211;28;20404;-89
2022/09/14 03:41:24;;;;;;;11.38;8.60;;;10.20;99.90;;;;;;4976568;28;20397;-88
2022/09/14 03:43:52;;;;;;;12.77;8.85;;;10.20;99.90;;;;;;4975388;28;20489;-88
2022/09/14 03:46:21;;;;;;;13.13;9.13;;;10.30;99.90;;;;;;4975300;28;20769;-88
2022/09/14 03:48:50;;;;;;;14.50;9.07;;;10.30;99.90;;;;;;4975228;28;20425;-90
2022/09/14 03:51:17;;;;;;;13.85;9.05;;;10.30;99.90;;;;;;4975188;28;20765;-89
2022/09/14 03:53:46;;;;;;;13.30;9.32;;;10.30;99.90;;;;;;4975438;28;20457;-88
2022/09/14 03:56:16;;;;;;;15.40;9.05;;;10.30;99.90;;;;;;4975094;28;20405;-89
2022/09/14 03:58:45;;;;;;;15.27;8.95;;;10.30;99.90;;;;;;4960663;28;20788;-88
2022/09/14 04:01:16;;;;;;;15.02;9.88;;;10.20;99.90;;;;;;4966003;28;20501;-89
2022/09/14 04:03:45;;;;;;;15.80;10.67;;;10.30;99.90;;;;;;4958793;28;20400;-88
2022/09/14 04:06:14;;;;;;;14.03;8.57;;;10.40;99.90;;;;;;4955553;29;20487;-88
2022/09/14 04:08:43;;;;;;;15.27;10.13;;;10.30;99.90;;;;;;4956723;28;20499;-88
2022/09/14 04:11:16;;;;;;;15.85;9.45;;;10.30;99.90;;;;;;4957987;28;20927;-87
2022/09/14 04:13:44;;;;;;;13.20;9.00;;;10.20;99.90;;;;;;4955469;29;20807;-89
2022/09/14 04:16:12;;;;;;;12.80;8.40;;;10.20;99.90;;;;;;4971512;28;20770;-89
2022/09/14 04:18:40;;;;;;;12.18;8.60;;;10.00;99.90;;;;;;4974939;28;20414;-87
2022/09/14 04:21:12;;;;;;;16.13;9.93;;;10.10;99.90;;;;;;4973765;28;20417;-88
2022/09/14 04:23:40;;;;;;;12.65;8.63;;;10.10;99.90;;;;;;4974395;28;20444;-88
2022/09/14 04:26:30;;;;;;;13.38;8.48;;;10.20;99.90;;;;;;4971247;28;20794;-86
2022/09/14 04:28:58;;;;;;;17.40;9.77;;;10.20;99.90;;;;;;4955626;29;20423;-87
2022/09/14 04:31:25;;;;;;;18.35;9.15;;;10.10;99.90;;;;;;4955311;29;21023;-86
2022/09/14 04:33:55;;;;;;;13.40;8.85;;;10.20;99.90;;;;;;4956333;29;20396;-89
2022/09/14 04:36:27;;;;;;;14.57;10.18;;;10.20;99.90;;;;;;4961165;28;20403;-88
2022/09/14 04:38:58;;;;;;;13.07;9.40;;;10.20;99.90;;;;;;4963635;28;20393;-88
2022/09/14 04:41:27;;;;;;;11.02;8.13;;;10.20;99.90;;;;;;4971305;28;20414;-88
2022/09/14 04:43:55;;;;;;;12.48;9.48;;;10.10;99.90;;;;;;4975848;28;20389;-88
2022/09/14 04:46:26;;;;;;;10.77;7.93;;;10.20;99.90;;;;;;4974290;28;20394;-88
2022/09/14 04:48:54;;;;;;;13.70;9.20;;;10.30;99.90;;;;;;4975311;28;20421;-87
2022/09/14 04:51:27;;;;;;;16.48;10.10;;;10.20;99.90;;;;;;4974288;28;20905;-89
2022/09/14 04:53:57;;;;;;;15.93;9.60;;;10.20;99.90;;;;;;4974086;28;20797;-87
2022/09/14 04:56:27;;;;;;;11.77;9.23;;;10.30;99.90;;;;;;4974351;28;20889;-87
2022/09/14 04:58:58;;;;;;;13.95;8.38;;;10.30;99.90;;;;;;4974046;28;20829;-86
2022/09/14 05:01:29;;;;;;;12.18;8.52;;;10.20;99.90;;;;;;4975426;28;20395;-87
2022/09/14 05:03:57;;;;;;;12.15;8.50;;;10.30;99.90;;;;;;4965916;28;20766;-87
2022/09/14 05:06:28;;;;;;;12.20;9.52;;;10.30;99.90;;;;;;4970736;28;20392;-86
2022/09/14 05:08:58;;;;;;;11.07;7.75;;;10.30;99.90;;;;;;4970275;28;20423;-87
2022/09/14 05:11:30;;;;;;;12.70;8.75;;;10.40;99.90;;;;;;4970064;28;20475;-86
2022/09/14 05:14:00;;;;;;;13.18;8.77;;;10.30;99.90;;;;;;4955829;28;20392;-89
2022/09/14 05:16:32;;;;;;;13.50;9.15;;;10.20;99.90;;;;;;4973773;28;20985;-88
2022/09/14 05:19:03;;;;;;;13.60;9.23;;;10.30;99.90;;;;;;4973689;28;20461;-86
2022/09/14 05:21:34;;;;;;;10.80;7.38;;;10.30;99.90;;;;;;4974003;28;20411;-89
2022/09/14 05:24:06;;;;;;;12.52;8.60;;;10.30;99.90;;;;;;4973637;28;20777;-87
2022/09/14 05:26:34;;;;;;;14.18;8.75;;;10.20;99.90;;;;;;4969470;28;20408;-88
2022/09/14 05:29:02;;;;;;;12.43;8.63;;;10.20;99.90;;;;;;4957219;28;20419;-86
2022/09/14 05:31:31;;;;;;;13.52;7.97;;;10.30;99.90;;;;;;4967077;28;20406;-87
2022/09/14 05:33:59;;;;;;;12.10;7.72;;;10.20;99.90;;;;;;4957019;28;20749;-85
2022/09/14 05:36:26;;;;;;;10.90;7.80;;;10.20;99.90;;;;;;4958490;28;20412;-86
2022/09/14 05:38:56;;;;;;;9.20;6.70;;;10.30;99.90;;;;;;4966477;28;20740;-88
2022/09/14 05:41:24;;;;;;;10.05;7.22;;;10.30;99.90;;;;;;4969976;28;20396;-89
2022/09/14 05:43:51;;;;;;;11.35;7.90;;;10.20;99.90;;;;;;4953854;29;20946;-89
2022/09/14 05:46:19;;;;;;;9.77;7.13;;;10.20;99.90;;;;;;4954150;29;20428;-89
2022/09/14 05:48:50;;;;;;;13.05;8.23;;;10.20;99.90;;;;;;4955779;28;20986;-89
2022/09/14 05:51:25;;;;;;;11.70;6.97;;;10.20;99.90;;;;;;4966798;28;20404;-87
2022/09/14 05:53:56;;;;;;;11.52;7.80;;;10.30;99.90;;;;;;4983255;28;21006;-88
2022/09/14 05:56:26;;;;;;;12.25;8.18;;;10.30;99.90;;;;;;4973329;28;20434;-89
2022/09/14 05:58:54;;;;;;;11.90;8.35;;;10.40;99.90;;;;;;4988694;28;20397;-88
2022/09/14 06:01:25;;;;;;;12.63;8.07;;;10.40;99.90;;;;;;4992541;28;20695;-87
2022/09/14 06:03:59;;;;;;;14.98;8.05;;;10.40;99.90;;;;;;4993394;28;20428;-87
2022/09/14 06:06:27;;;;;;;13.68;8.43;;;10.30;99.90;;;;;;4985911;28;20402;-88
2022/09/14 06:08:55;;;;;;;14.63;8.45;;;10.30;99.90;;;;;;4973064;28;20414;-90
2022/09/14 06:11:28;;;;;;;12.73;7.43;;;10.30;99.90;;;;;;4974065;28;20445;-89
2022/09/14 06:13:56;;;;;;;13.23;7.72;;;10.20;99.90;;;;;;4956819;28;20397;-88
2022/09/14 06:16:26;;;;;;;14.07;8.32;;;10.20;99.90;;;;;;4968648;28;20416;-88
2022/09/14 06:18:55;;;;;;;12.88;7.75;;;10.20;99.90;;;;;;4969924;28;20394;-89
2022/09/14 06:21:26;;;;;;;12.38;7.55;;;10.20;99.90;;;;;;4972458;28;20505;-89
2022/09/14 06:23:54;;;;;;;14.90;8.47;;;10.20;99.90;;;;;;4963815;28;20779;-86
2022/09/14 06:26:22;;;;;;;13.30;7.88;;;10.30;99.90;;;;;;4953127;28;20436;-87
2022/09/14 06:28:50;;;;;;;14.48;9.10;;;10.30;99.90;;;;;;4954252;28;20412;-88
2022/09/14 06:31:21;;;;;;;12.18;7.38;;;10.40;99.90;;;;;;4968978;28;20404;-88
2022/09/14 06:33:50;;;;;;;12.77;8.05;;;10.40;99.90;;;;;;4952992;29;20401;-88
2022/09/14 06:36:23;;;;;;;12.40;7.85;;;10.40;99.90;;;;;;4953021;29;20455;-89
2022/09/14 06:38:51;;;;;;;12.90;7.47;;;10.40;99.90;;;;;;4953113;29;20772;-89
2022/09/14 06:41:22;;;;;;;10.30;7.03;;;10.40;99.90;;;;;;4953096;28;20408;-87
2022/09/14 06:43:51;;;;;;;11.95;8.20;;;10.30;99.90;;;;;;4964774;28;20409;-86
2022/09/14 06:46:38;;;;;;;12.43;8.30;;;10.40;99.90;;;;;;4972294;28;20425;-88
2022/09/14 06:49:11;;;;;;;11.32;7.50;;;10.40;99.90;;;;;;4966332;28;20418;-87
2022/09/14 06:51:41;;;;;;;9.27;6.72;;;10.30;99.90;;;;;;4973328;28;20398;-88
2022/09/14 06:54:11;;;;;;;12.30;7.30;;;10.40;99.90;;;;;;4972474;28;20438;-87
2022/09/14 06:56:40;;;;;;;10.00;7.23;;;10.40;99.90;;;;;;4968359;28;20411;-86
2022/09/14 06:59:12;;;;;;;11.35;7.25;;;10.40;99.90;;;;;;4952788;29;20388;-86
2022/09/14 07:01:39;;;;;;;12.83;8.20;;;10.40;99.90;;;;;;4952715;29;20408;-87
2022/09/14 07:04:07;;;;;;;11.18;8.00;;;10.40;99.90;;;;;;4961866;28;20403;-86
2022/09/14 07:06:48;;;;;;;10.25;7.30;;;10.40;99.90;;;;;;4955171;28;20395;-86
2022/09/14 07:09:17;;;;;;;9.52;7.22;;;10.40;99.90;;;;;;4961937;28;20408;-86
2022/09/14 07:11:46;;;;;;;10.07;7.40;;;10.40;99.90;;;;;;4956781;29;20396;-87
2022/09/14 07:14:13;;;;;;;9.32;7.00;;;10.40;99.90;;;;;;4956609;29;20406;-87
2022/09/14 07:16:41;;;;;;;10.43;6.97;;;10.40;99.90;;;;;;4956529;29;20431;-87
2022/09/14 07:19:11;;;;;;;11.60;8.10;;;10.40;99.90;;;;;;4956459;29;20404;-88
2022/09/14 07:21:39;;;;;;;8.60;6.63;;;10.40;99.90;;;;;;4963641;28;20857;-87
2022/09/14 07:24:07;;;;;;;9.50;7.30;;;10.40;99.90;;;;;;4975833;28;20410;-86
2022/09/14 07:26:39;;;;;;;10.20;7.00;;;10.30;99.90;;;;;;4975696;28;20937;-87
2022/09/14 07:29:12;;;;;;;9.25;7.53;;;10.30;99.90;;;;;;4976147;28;20934;-87
2022/09/14 07:31:49;;;;;;;9.67;7.50;;;10.30;99.90;;;;;;4975675;28;20401;-86
2022/09/14 07:34:17;;;;;;;10.05;7.82;;;10.40;99.90;;;;;;4972236;28;20433;-86
2022/09/14 07:36:45;;;;;;;8.57;6.65;;;10.40;99.90;;;;;;4975636;28;20394;-85
2022/09/14 07:39:15;;;;;;;8.63;6.97;;;10.40;99.90;;;;;;4974473;28;20403;-86
2022/09/14 07:41:43;;;;;;;10.05;7.88;;;10.40;99.90;;;;;;4975375;28;20398;-86
2022/09/14 07:44:14;;;;;;;11.60;7.10;;;10.50;99.90;;;;;;4976485;28;20421;-86
2022/09/14 07:46:44;;;;;;;11.90;7.70;;;10.40;99.90;;;;;;4976515;28;20794;-86
2022/09/14 07:49:12;;;;;;;10.50;7.35;;;10.40;99.90;;;;;;4975289;28;20847;-87
2022/09/14 07:51:40;;;;;;;12.25;7.90;;;10.40;99.90;;;;;;4975357;28;20390;-86
2022/09/14 07:54:11;;;;;;;11.60;8.23;;;10.40;99.90;;;;;;4975138;28;20391;-87
2022/09/14 07:56:39;;;;;;;11.35;8.05;;;10.40;99.90;;;;;;4975372;28;20521;-85
2022/09/14 07:59:06;;;;;;;12.23;7.47;;;10.40;99.90;;;;;;4976291;28;20403;-86
2022/09/14 08:01:54;;;;;;;12.93;8.07;;;10.40;99.90;;;;;;4975279;28;20391;-85
2022/09/14 08:04:22;;;;;;;11.90;7.45;;;10.40;99.90;;;;;;4975677;28;20395;-87
2022/09/14 08:06:49;;;;;;;11.43;8.02;;;10.40;99.90;;;;;;4975010;28;20483;-87
2022/09/14 08:09:17;;;;;;;11.47;7.93;;;10.50;99.90;;;;;;4976274;28;20410;-86
2022/09/14 08:11:44;;;;;;;13.23;8.73;;;10.50;99.90;;;;;;4975074;28;20387;-86
2022/09/14 08:14:12;;;;;;;13.32;8.85;;;10.60;99.90;;;;;;4976588;28;20844;-86
2022/09/14 08:16:40;;;;;;;13.50;9.13;;;10.60;99.90;;;;;;4974950;28;20445;-86
2022/09/14 08:19:14;;;;;;;13.05;9.13;;;10.50;99.90;;;;;;4974713;28;20421;-86
2022/09/14 08:21:42;;;;;;;12.80;9.10;;;10.50;99.90;;;;;;4975203;28;20818;-87
2022/09/14 08:24:16;;;;;;;14.80;9.73;;;10.50;99.90;;;;;;4974867;28;20964;-86
2022/09/14 08:26:45;;;;;;;13.07;8.73;;;10.50;99.90;;;;;;4974830;28;20383;-87
2022/09/14 08:29:13;;;;;;;13.43;9.07;;;10.60;99.90;;;;;;4974926;28;20849;-87
2022/09/14 08:31:42;;;;;;;13.20;8.60;;;10.60;99.90;;;;;;4975895;28;20741;-86
2022/09/14 08:34:11;;;;;;;15.65;9.40;;;10.60;99.90;;;;;;4974478;28;20383;-85
2022/09/14 08:36:41;;;;;;;14.05;8.98;;;10.60;99.90;;;;;;4975700;28;20387;-86
2022/09/14 08:39:10;;;;;;;16.08;10.75;;;10.60;99.90;;;;;;4975619;28;20884;-85
2022/09/14 08:41:47;;;;;;;19.27;10.73;;;10.60;99.90;;;;;;4975384;28;20429;-87
2022/09/14 08:44:29;;;;;;;13.90;9.45;;;10.60;99.90;;;;;;4974427;28;20391;-87
2022/09/14 08:47:17;;;;;;;12.02;9.07;;;10.60;99.90;;;;;;4975907;28;20954;-86
2022/09/14 08:50:06;;;;;;;12.68;9.07;;;10.70;99.90;;;;;;4975528;28;20510;-87
2022/09/14 08:52:42;;;;;;;13.40;9.20;;;10.60;99.90;;;;;;4971563;28;20469;-86
2022/09/14 08:55:37;;;;;;;13.95;9.20;;;10.60;99.90;;;;;;4974157;28;20430;-86
2022/09/14 08:58:27;;;;;;;13.55;9.43;;;10.60;99.90;;;;;;4973286;28;20815;-86
2022/09/14 09:01:13;;;;;;;13.53;9.47;;;10.70;99.90;;;;;;4974188;28;20905;-85
2022/09/14 09:04:09;;;;;;;12.63;9.37;;;10.60;99.90;;;;;;4955950;29;20855;-87
2022/09/14 09:06:40;;;;;;;13.30;9.40;;;10.70;99.90;;;;;;4968403;28;20453;-86
2022/09/14 09:09:47;;;;;;;14.27;8.77;;;10.70;99.90;;;;;;4983274;28;20501;-86
2022/09/14 09:12:45;;;;;;;12.93;9.50;;;10.70;99.90;;;;;;4987332;28;20903;-86
2022/09/14 09:15:40;;;;;;;12.45;8.85;;;10.80;99.90;;;;;;4988755;28;20438;-85
2022/09/14 09:18:19;;;;;;;14.47;10.30;;;10.80;99.90;;;;;;4974498;28;20393;-87
2022/09/14 09:20:58;;;;;;;15.25;10.27;;;10.80;99.90;;;;;;4973497;28;20490;-86
2022/09/14 09:23:31;;;;;;;15.18;9.82;;;10.80;99.90;;;;;;4977002;28;20443;-87
2022/09/14 09:25:59;;;;;;;14.95;8.90;;;10.80;99.90;;;;;;4993100;28;20385;-87
2022/09/14 09:28:27;;;;;;;14.80;9.60;;;10.90;99.90;;;;;;4978861;28;20437;-87
2022/09/14 09:31:00;;;;;;;16.15;10.50;;;11.00;99.90;;;;;;4970131;28;20759;-86
2022/09/14 09:33:47;;;;;;;14.60;9.85;;;11.00;99.90;;;;;;4953354;28;20431;-86
2022/09/14 09:36:19;;;;;;;13.40;9.98;;;10.90;99.90;;;;;;4938577;29;20492;-86
2022/09/14 09:38:46;;;;;;;15.20;10.10;;;11.00;99.90;;;;;;4954012;29;20845;-87
2022/09/14 09:41:22;;;;;;;15.38;10.05;;;11.00;99.90;;;;;;4972081;28;20971;-87
2022/09/14 09:44:11;;;;;;;13.70;10.32;;;11.00;99.90;;;;;;4976757;28;20415;-86
2022/09/14 09:46:52;;;;;;;13.73;9.85;;;11.00;99.90;;;;;;4974800;28;20416;-87
2022/09/14 09:49:21;;;;;;;13.32;9.82;;;11.00;99.90;;;;;;4972931;28;20411;-87
2022/09/14 09:51:50;;;;;;;12.07;8.88;;;11.10;99.90;;;;;;4972892;28;20453;-87
2022/09/14 09:54:29;;;;;;;12.02;9.25;;;11.10;99.90;;;;;;4973087;28;20423;-86
2022/09/14 09:57:03;;;;;;;12.50;9.60;;;11.10;99.90;;;;;;4972533;28;20446;-86
2022/09/14 09:59:34;;;;;;;12.35;9.32;;;11.20;99.90;;;;;;4969323;28;20410;-85
2022/09/14 10:02:27;;;;;;;12.52;8.65;;;11.20;99.90;;;;;;4971037;28;20416;-86
2022/09/14 10:05:13;;;;;;;11.57;9.15;;;11.20;99.90;;;;;;4978276;28;20408;-86
2022/09/14 10:07:42;;;;;;;11.95;8.73;;;11.20;99.90;;;;;;4972650;28;20511;-86
2022/09/14 10:10:13;;;;;;;9.77;7.93;;;11.20;99.90;;;;;;4965602;28;20435;-85
2022/09/14 10:12:53;;;;;;;11.27;8.82;;;11.20;99.90;;;;;;4942017;29;20408;-87
2022/09/14 10:15:24;;;;;;;11.45;8.38;;;11.30;99.90;;;;;;4953232;28;20402;-87
2022/09/14 10:18:09;;;;;;;12.95;8.68;;;11.20;99.90;;;;;;4962774;28;20485;-85
2022/09/14 10:20:50;;;;;;;13.23;9.23;;;11.30;99.90;;;;;;4966373;28;20495;-86
2022/09/14 10:23:18;;;;;;;12.20;9.45;;;11.30;99.90;;;;;;4961736;28;20412;-86
2022/09/14 10:25:47;;;;;;;10.85;8.48;;;11.30;99.90;;;;;;4968117;28;20798;-86
2022/09/14 10:28:27;;;;;;;9.48;7.50;;;11.30;99.90;;;;;;4965527;28;20419;-87
2022/09/14 10:31:04;;;;;;;8.82;7.18;;;11.30;99.90;;;;;;4959909;28;20774;-85
2022/09/14 10:33:34;;;;;;;9.18;7.15;;;11.30;99.90;;;;;;4982521;28;20735;-86
2022/09/14 10:36:28;;;;;;;7.73;6.30;;;11.30;99.90;;;;;;4972565;28;20418;-85
2022/09/14 10:39:19;;;;;;;8.15;7.13;;;11.40;99.90;;;;;;4972021;28;20418;-85
2022/09/14 10:41:59;;;;;;;9.35;7.22;;;11.40;99.90;;;;;;4972237;28;20405;-86
2022/09/14 10:45:07;;;;;;;10.43;7.35;;;11.40;99.90;;;;;;4972110;28;20414;-86
2022/09/14 10:47:59;;;;;;;8.38;6.97;;;11.40;99.90;;;;;;4960743;28;20893;-86
2022/09/14 10:50:40;;;;;;;9.32;7.03;;;11.40;99.90;;;;;;4968613;28;20421;-86
2022/09/14 10:53:32;;;;;;;9.07;6.72;;;11.40;99.90;;;;;;4965378;28;20503;-86
2022/09/14 10:56:23;;;;;;;8.80;6.63;;;11.40;99.90;;;;;;4968844;28;20392;-86
2022/09/14 10:59:17;;;;;;;10.15;7.05;;;11.40;99.90;;;;;;4964848;28;20451;-86
2022/09/14 11:02:29;;;;;;;10.18;7.60;;;11.40;99.90;;;;;;4952526;29;20408;-87
2022/09/14 11:05:03;;;;;;;8.63;6.90;;;11.40;99.90;;;;;;4916679;29;20441;-85
2022/09/14 11:07:53;;;;;;;8.90;7.18;;;11.40;99.90;;;;;;4931481;29;20440;-87
2022/09/14 11:10:32;;;;;;;10.00;7.60;;;11.40;99.90;;;;;;4944055;28;20421;-87
2022/09/14 11:13:25;;;;;;;10.55;6.90;;;11.40;99.90;;;;;;4971697;28;20394;-86
2022/09/14 11:16:24;;;;;;;9.07;7.10;;;11.40;99.90;;;;;;4971822;28;20897;-86
2022/09/14 11:19:10;;;;;;;8.00;6.35;;;11.40;99.90;;;;;;4963619;28;20454;-86
2022/09/14 11:21:50;;;;;;;7.82;6.65;;;11.40;99.90;;;;;;4971645;28;20414;-86
2022/09/14 11:24:39;;;;;;;8.38;6.47;;;11.40;99.90;;;;;;4962703;28;20530;-86
2022/09/14 11:27:31;;;;;;;7.78;6.53;;;11.40;99.90;;;;;;4971735;28;20565;-86
2022/09/14 11:30:10;;;;;;;7.60;6.30;;;11.40;99.90;;;;;;4971861;28;20434;-84
2022/09/14 11:32:56;;;;;;;10.00;7.28;;;11.40;99.90;;;;;;4972939;28;20383;-87
2022/09/14 11:35:49;;;;;;;9.88;7.22;;;11.40;99.90;;;;;;4971619;28;20398;-86
2022/09/14 11:38:20;;;;;;;10.25;7.72;;;11.40;99.90;;;;;;4971631;28;20407;-86
2022/09/14 11:41:16;;;;;;;12.27;8.60;;;11.50;99.90;;;;;;4971892;28;20415;-86
2022/09/14 11:43:56;;;;;;;11.80;8.23;;;11.40;99.90;;;;;;4971857;28;20761;-86
2022/09/14 11:46:31;;;;;;;13.85;9.35;;;11.40;99.90;;;;;;4971660;28;20419;-85
2022/09/14 11:49:20;;;;;;;13.03;9.43;;;11.40;99.90;;;;;;4971645;28;20418;-87
2022/09/14 11:51:59;;;;;;;15.45;10.02;;;11.40;99.90;;;;;;4971553;28;20401;-85
2022/09/14 11:54:27;;;;;;;11.70;9.32;;;11.40;99.90;;;;;;4971865;28;20449;-86
2022/09/14 11:57:01;;;;;;;15.43;9.63;;;11.40;99.90;;;;;;4974312;28;20399;-88
2022/09/14 11:59:38;;;;;;;15.40;10.82;;;11.40;99.90;;;;;;4970774;28;20423;-86
2022/09/14 12:02:24;;;;;;;16.45;11.70;;;11.40;99.90;;;;;;4955671;28;20436;-87
2022/09/14 12:05:04;;;;;;;13.82;9.60;;;11.50;99.90;;;;;;4955300;28;20397;-86
2022/09/14 12:07:50;;;;;;;14.40;10.15;;;11.50;99.90;;;;;;4963871;28;20516;-87
2022/09/14 12:10:19;;;;;;;12.23;8.87;;;11.60;99.90;;;;;;4955801;29;20416;-87
2022/09/14 12:12:52;;;;;;;14.18;8.70;;;11.60;99.90;;;;;;4956125;29;20495;-86
2022/09/14 12:15:25;;;;;;;11.10;8.50;;;11.70;99.90;;;;;;4973052;28;20408;-87
2022/09/14 12:18:19;;;;;;;10.75;8.00;;;11.70;99.90;;;;;;4964347;28;20913;-88
2022/09/14 12:20:52;;;;;;;10.47;7.60;;;11.80;99.90;;;;;;4965661;28;20408;-87
2022/09/14 12:23:25;;;;;;;9.52;7.32;;;11.90;99.90;;;;;;4955477;29;20400;-86
2022/09/14 12:25:53;;;;;;;10.68;7.70;;;11.90;99.90;;;;;;4962910;28;20424;-87
2022/09/14 12:28:38;;;;;;;12.17;7.70;;;12.00;99.90;;;;;;4971841;28;20497;-87
2022/09/14 12:31:12;;;;;;;12.65;7.85;;;12.00;99.90;;;;;;4965031;28;20481;-86
2022/09/14 12:33:42;;;;;;;10.40;7.00;;;12.00;99.90;;;;;;4957464;28;20402;-87
2022/09/14 12:36:10;;;;;;;10.27;7.00;;;12.00;99.90;;;;;;4969751;28;20475;-88
2022/09/14 12:38:41;;;;;;;10.32;7.32;;;12.00;99.90;;;;;;4959297;28;20412;-87
2022/09/14 12:41:14;;;;;;;9.82;7.05;;;12.00;99.90;;;;;;4961246;28;20482;-86
2022/09/14 12:43:47;;;;;;;8.52;6.53;;;12.10;99.90;;;;;;4969213;28;20402;-86
2022/09/14 12:46:19;;;;;;;10.73;6.93;;;12.10;99.90;;;;;;4974902;28;20405;-87
2022/09/14 12:54:08;;;;;;;12.00;6.93;;;12.10;99.90;;;;;;4963094;28;20821;-86
2022/09/14 12:56:49;;;;;;;10.98;6.97;;;12.10;99.90;;;;;;4960076;28;20388;-86
2022/09/14 12:59:45;;;;;;;10.20;6.40;;;12.10;99.90;;;;;;4974115;28;20481;-87
2022/09/14 13:02:51;;;;;;;10.53;6.60;;;12.10;99.90;;;;;;4974064;28;20913;-87
2022/09/14 13:05:23;;;;;;;9.07;6.60;;;12.10;99.90;;;;;;4974351;28;20405;-86
2022/09/14 13:07:53;;;;;;;11.05;6.43;;;12.10;99.90;;;;;;4970526;28;20424;-87
2022/09/14 13:10:46;;;;;;;9.52;6.32;;;12.20;99.90;;;;;;4954447;29;20950;-87
2022/09/14 13:13:34;;;;;;;13.52;6.57;;;12.20;99.90;;;;;;4965765;28;20404;-87
2022/09/14 13:16:05;;;;;;;9.10;6.15;;;12.20;99.90;;;;;;4991315;28;20397;-86
2022/09/14 13:18:35;;;;;;;9.00;6.07;;;12.20;99.90;;;;;;4961254;28;20399;-87
2022/09/14 13:21:22;;;;;;;9.98;6.40;;;12.20;99.90;;;;;;4974663;28;20818;-87
2022/09/14 13:23:53;;;;;;;10.43;6.40;;;12.30;99.90;;;;;;4957849;28;20613;-85